Temp: 9.6°C   Baro: 1017.7mb
  Wind: 6.9mph   Dir: NW (306°)
  Rain: 0.0mm (0.0mm/hr)
  Sun: 153W/m2  Humidity: 63%

Historic data

Bath Spa Weather Station Historical Data
Daily Summary for February 26, 2024 Units:  Metric    English   Both
Daily Weekly Monthly Yearly Custom
  High: Low: Average:
Temperature: 9.7 °C 2.2 °C 5.3 °C
Dew Point: 3.7 °C -0.2 °C 1.9 °C
Humidity: 85% 64% 79%
Wind Speed: 23.8km/h 0.8km/h 11.9km/h
Wind Gust: 49.9km/h - -
Wind- - SSW
Pressure: 1023.6 hPa 998.9 hPa -
Precipitation: 0 mm    
Historical Graphs
 
 
Tabular Data for February 26, 2024
Time Temperature Dew Point Pressure Wind Wind Speed Wind Gust Humidity Rainfall Rate (Hourly) solar
00:09 4.6 °C 2.3 °C 998.9 hPa NE 18.7 km/h 38.6 km/h 85% 0 mm 0 W/m2
00:14 4.6 °C 2.3 °C 999.2 hPa North 10.6 km/h 25.7 km/h 85% 0 mm 0 W/m2
00:19 4.5 °C 2.2 °C 999.2 hPa NE 11.9 km/h 33.8 km/h 85% 0 mm 0 W/m2
00:24 4.5 °C 2.2 °C 999.5 hPa NNE 14.8 km/h 35.4 km/h 85% 0 mm 0 W/m2
00:29 4.4 °C 2.1 °C 999.5 hPa NNE 16.1 km/h 38.6 km/h 85% 0 mm 0 W/m2
00:34 4.4 °C 2.1 °C 999.5 hPa NNE 17.4 km/h 29 km/h 84.8% 0 mm 0 W/m2
00:39 4.4 °C 2.1 °C 999.5 hPa NNE 12.1 km/h 32.2 km/h 85% 0 mm 0 W/m2
00:44 4.4 °C 2.1 °C 999.9 hPa North 14.2 km/h 30.6 km/h 85% 0 mm 0 W/m2
00:49 4.4 °C 2.1 °C 999.9 hPa NNE 13.8 km/h 30.6 km/h 85% 0 mm 0 W/m2
00:54 4.4 °C 2.1 °C 999.9 hPa NNE 18 km/h 33.8 km/h 85% 0 mm 0 W/m2
00:59 4.4 °C 2 °C 1000.2 hPa NNE 13.8 km/h 35.4 km/h 84.4% 0 mm 0 W/m2
01:04 4.4 °C 1.9 °C 1000.2 hPa NNE 12.9 km/h 37 km/h 84.2% 0 mm 0 W/m2
01:09 4.4 °C 1.9 °C 1000.2 hPa NNE 12.6 km/h 41.8 km/h 84% 0 mm 0 W/m2
01:14 4.3 °C 1.8 °C 1000.2 hPa North 12.7 km/h 29 km/h 84% 0 mm 0 W/m2
01:19 4.3 °C 1.8 °C 1000.6 hPa NNE 16.3 km/h 33.8 km/h 84% 0 mm 0 W/m2
01:24 4.3 °C 1.8 °C 1000.6 hPa North 14.8 km/h 32.2 km/h 84% 0 mm 0 W/m2
01:29 4.3 °C 1.8 °C 1000.6 hPa North 13.7 km/h 29 km/h 84% 0 mm 0 W/m2
01:34 4.3 °C 1.8 °C 1000.9 hPa North 17.1 km/h 32.2 km/h 84% 0 mm 0 W/m2
01:39 4.3 °C 1.8 °C 1000.9 hPa North 16.9 km/h 33.8 km/h 84% 0 mm 0 W/m2
01:44 4.3 °C 1.8 °C 1001.2 hPa North 12.6 km/h 32.2 km/h 84% 0 mm 0 W/m2
01:49 4.4 °C 1.9 °C 1001.2 hPa North 19.6 km/h 46.7 km/h 84% 0 mm 0 W/m2
01:54 4.4 °C 1.9 °C 1001.2 hPa NNE 19.6 km/h 46.7 km/h 84% 0 mm 0 W/m2
01:59 4.4 °C 1.9 °C 1001.6 hPa NNE 18.3 km/h 37 km/h 83.8% 0 mm 0 W/m2
02:04 4.5 °C 1.9 °C 1001.6 hPa North 10.9 km/h 37 km/h 83.2% 0 mm 0 W/m2
02:09 4.6 °C 1.9 °C 1001.9 hPa NNE 12.6 km/h 30.6 km/h 83% 0 mm 0 W/m2
02:14 4.6 °C 2 °C 1001.9 hPa NNE 20.1 km/h 40.2 km/h 83% 0 mm 0 W/m2
02:19 4.5 °C 1.9 °C 1001.9 hPa NNE 14.8 km/h 40.2 km/h 83% 0 mm 0 W/m2
02:24 4.5 °C 1.9 °C 1001.9 hPa NNE 10 km/h 30.6 km/h 83% 0 mm 0 W/m2
02:29 4.4 °C 1.8 °C 1002.3 hPa NNE 18 km/h 38.6 km/h 83% 0 mm 0 W/m2
02:34 4.4 °C 1.8 °C 1002.3 hPa North 15.8 km/h 38.6 km/h 83% 0 mm 0 W/m2
02:39 4.5 °C 1.9 °C 1002.3 hPa NNW 12.9 km/h 40.2 km/h 83% 0 mm 0 W/m2
02:44 4.5 °C 1.9 °C 1002.3 hPa North 15.1 km/h 27.4 km/h 83% 0 mm 0 W/m2
02:49 4.5 °C 1.9 °C 1002.6 hPa North 13.2 km/h 40.2 km/h 83% 0 mm 0 W/m2
02:54 4.6 °C 1.9 °C 1002.6 hPa NNE 11.6 km/h 27.4 km/h 83% 0 mm 0 W/m2
02:59 4.5 °C 1.9 °C 1002.9 hPa NNE 15.1 km/h 33.8 km/h 83% 0 mm 0 W/m2
03:04 4.5 °C 1.9 °C 1002.9 hPa North 9 km/h 24.1 km/h 83% 0 mm 0 W/m2
03:09 4.4 °C 1.7 °C 1002.9 hPa North 13.5 km/h 25.7 km/h 82.8% 0 mm 0 W/m2
03:14 4.4 °C 1.6 °C 1003.3 hPa NNW 8 km/h 29 km/h 82% 0 mm 0 W/m2
03:19 4.4 °C 1.6 °C 1003.3 hPa NNE 13.5 km/h 24.1 km/h 82% 0 mm 0 W/m2
03:24 4.4 °C 1.6 °C 1003.3 hPa North 8.7 km/h 20.9 km/h 82% 0 mm 0 W/m2
03:29 4.4 °C 1.6 °C 1003.6 hPa NE 12.9 km/h 24.1 km/h 82% 0 mm 0 W/m2
03:34 4.3 °C 1.5 °C 1003.6 hPa NNE 14.8 km/h 25.7 km/h 82% 0 mm 0 W/m2
03:39 4.3 °C 1.5 °C 1003.6 hPa NNE 14.2 km/h 32.2 km/h 82% 0 mm 0 W/m2
03:44 4.3 °C 1.4 °C 1003.9 hPa North 15.8 km/h 22.5 km/h 81.6% 0 mm 0 W/m2
03:49 4.3 °C 1.3 °C 1003.9 hPa North 14.2 km/h 37 km/h 81% 0 mm 0 W/m2
03:54 4.4 °C 1.4 °C 1004.3 hPa North 20.1 km/h 37 km/h 81% 0 mm 0 W/m2
03:59 4.4 °C 1.4 °C 1004.3 hPa NNE 23.2 km/h 41.8 km/h 81% 0 mm 0 W/m2
04:04 4.4 °C 1.4 °C 1004.3 hPa NNE 10.3 km/h 33.8 km/h 81% 0 mm 0 W/m2
04:09 4.4 °C 1.4 °C 1004.6 hPa NNE 10.6 km/h 35.4 km/h 81% 0 mm 0 W/m2
04:14 4.3 °C 1.3 °C 1004.6 hPa NNE 8 km/h 27.4 km/h 81% 0 mm 0 W/m2
04:19 4.3 °C 1.3 °C 1004.6 hPa North 11.3 km/h 25.7 km/h 80.8% 0 mm 0 W/m2
04:24 4.3 °C 1.2 °C 1004.6 hPa North 15.8 km/h 30.6 km/h 80% 0 mm 0 W/m2
04:29 4.3 °C 1.2 °C 1005 hPa NNE 17.7 km/h 27.4 km/h 80% 0 mm 0 W/m2
04:34 4.3 °C 1.2 °C 1005.3 hPa NNE 15.4 km/h 49.9 km/h 80% 0 mm 0 W/m2
04:39 4.2 °C 1 °C 1005.3 hPa North 11.9 km/h 35.4 km/h 79.2% 0 mm 0 W/m2
04:44 4.2 °C 0.9 °C 1005.6 hPa NNE 9.8 km/h 25.7 km/h 79% 0 mm 0 W/m2
04:49 4.2 °C 0.9 °C 1005.6 hPa NNE 15 km/h 38.6 km/h 79% 0 mm 0 W/m2
04:54 4.2 °C 0.9 °C 1006 hPa NNE 9 km/h 38.6 km/h 79% 0 mm 0 W/m2
04:59 4.2 °C 0.9 °C 1006 hPa NNE 17.1 km/h 33.8 km/h 79% 0 mm 0 W/m2
05:04 4.2 °C 0.9 °C 1006 hPa NNE 23.8 km/h 38.6 km/h 79% 0 mm 0 W/m2
05:09 4.3 °C 0.8 °C 1006.3 hPa North 15.4 km/h 35.4 km/h 78% 0 mm 0 W/m2
05:14 4.3 °C 0.8 °C 1006.3 hPa NNE 18 km/h 46.7 km/h 78% 0 mm 0 W/m2
05:19 4.3 °C 0.8 °C 1006.3 hPa North 10.5 km/h 27.4 km/h 78% 0 mm 0 W/m2
05:24 4.3 °C 0.8 °C 1006.7 hPa North 11.3 km/h 25.7 km/h 78% 0 mm 0 W/m2
05:29 4.3 °C 0.8 °C 1006.7 hPa NNE 7.7 km/h 25.7 km/h 78% 0 mm 0 W/m2
05:34 4.3 °C 0.8 °C 1007 hPa NNE 20 km/h 33.8 km/h 78% 0 mm 0 W/m2
05:39 4.3 °C 0.8 °C 1007 hPa North 21.2 km/h 35.4 km/h 78% 0 mm 0 W/m2
05:44 4.4 °C 0.9 °C 1007 hPa North 10 km/h 37 km/h 78% 0 mm 0 W/m2
05:49 4.4 °C 0.9 °C 1007.3 hPa NNE 17.7 km/h 40.2 km/h 78% 0 mm 0 W/m2
05:54 4.4 °C 0.9 °C 1007.3 hPa NNE 11.9 km/h 32.2 km/h 78% 0 mm 0 W/m2
05:59 4.4 °C 0.9 °C 1007.3 hPa NE 11.3 km/h 27.4 km/h 78% 0 mm 0 W/m2
06:04 4.4 °C 0.9 °C 1007.7 hPa North 17.4 km/h 30.6 km/h 78% 0 mm 0 W/m2
06:09 4.5 °C 1.1 °C 1007.7 hPa NNE 10.8 km/h 22.5 km/h 78.6% 0 mm 0 W/m2
06:14 4.5 °C 1.2 °C 1008 hPa NNE 15.8 km/h 33.8 km/h 79% 0 mm 0 W/m2
06:19 4.5 °C 1.2 °C 1008 hPa North 21.6 km/h 30.6 km/h 79% 0 mm 0 W/m2
06:24 4.5 °C 1.2 °C 1008 hPa North 12.6 km/h 33.8 km/h 79% 0 mm 0 W/m2
06:29 4.5 °C 1.2 °C 1008 hPa North 14.8 km/h 37 km/h 79% 0 mm 0 W/m2
06:34 4.5 °C 1.2 °C 1008.4 hPa North 18.7 km/h 45.1 km/h 79% 0 mm 0 W/m2
06:39 4.5 °C 1.2 °C 1008.4 hPa NNE 15.4 km/h 33.8 km/h 79% 0 mm 0 W/m2
06:44 4.5 °C 1.2 °C 1008.4 hPa NNW 12.7 km/h 24.1 km/h 79% 0 mm 0 W/m2
06:49 4.5 °C 1.2 °C 1008.7 hPa North 15.8 km/h 33.8 km/h 79% 0 mm 0 W/m2
06:54 4.5 °C 1.2 °C 1008.7 hPa NNE 19.2 km/h 33.8 km/h 79% 0 mm 0 W/m2
06:59 4.4 °C 1.3 °C 1009 hPa NNW 19.3 km/h 38.6 km/h 79.8% 0 mm 0 W/m2
07:04 4.4 °C 1.3 °C 1009 hPa North 13.8 km/h 25.7 km/h 80% 0 mm 0 W/m2
07:09 4.3 °C 1.2 °C 1009 hPa North 18 km/h 32.2 km/h 80.2% 0 mm 0 W/m2
07:14 4.2 °C 1.2 °C 1009.4 hPa North 12.9 km/h 25.7 km/h 81% 0 mm 5 W/m2
07:19 4.2 °C 1.2 °C 1009.4 hPa NNE 19 km/h 33.8 km/h 81% 0 mm 7 W/m2
07:24 4.2 °C 1.2 °C 1009.4 hPa NNE 15.8 km/h 35.4 km/h 81% 0 mm 9 W/m2
07:29 4.2 °C 1.2 °C 1009.7 hPa North 13.8 km/h 29 km/h 81% 0 mm 11 W/m2
07:34 4.2 °C 1.2 °C 1009.7 hPa North 16.7 km/h 35.4 km/h 81% 0 mm 12 W/m2
07:39 4.2 °C 1.2 °C 1010 hPa North 14.5 km/h 29 km/h 81% 0 mm 16 W/m2
07:44 4.2 °C 1.2 °C 1010 hPa North 11.7 km/h 24.1 km/h 81% 0 mm 16 W/m2
07:49 4.2 °C 1.2 °C 1010 hPa NNE 13.2 km/h 27.4 km/h 81% 0 mm 18 W/m2
07:54 4.2 °C 1.2 °C 1010 hPa North 13.5 km/h 35.4 km/h 80.8% 0 mm 21 W/m2
07:59 4.2 °C 1.2 °C 1010.4 hPa North 18 km/h 33.8 km/h 80.8% 0 mm 23 W/m2
08:04 4.3 °C 1.2 °C 1010.4 hPa North 12.6 km/h 27.4 km/h 80% 0 mm 25 W/m2
08:09 4.3 °C 1.2 °C 1010.7 hPa North 16.4 km/h 25.7 km/h 80% 0 mm 28 W/m2
08:14 4.3 °C 1.2 °C 1010.7 hPa North 12.6 km/h 29 km/h 80% 0 mm 37 W/m2
08:19 4.4 °C 1.3 °C 1010.7 hPa North 14.2 km/h 33.8 km/h 80% 0 mm 58 W/m2
08:24 4.4 °C 1.3 °C 1010.7 hPa North 18.2 km/h 32.2 km/h 80% 0 mm 54 W/m2
08:29 4.4 °C 1.3 °C 1011.1 hPa North 12.9 km/h 32.2 km/h 80% 0 mm 54 W/m2
08:34 4.4 °C 1.3 °C 1011.1 hPa NNE 12.7 km/h 27.4 km/h 80.8% 0 mm 67 W/m2
08:39 4.4 °C 1.4 °C 1011.1 hPa North 14.8 km/h 32.2 km/h 81% 0 mm 63 W/m2
08:44 4.4 °C 1.4 °C 1011.4 hPa North 10.9 km/h 25.7 km/h 81% 0 mm 72 W/m2
08:49 4.5 °C 1.5 °C 1011.4 hPa NNW 15.4 km/h 24.1 km/h 81% 0 mm 70 W/m2
08:54 4.4 °C 1.4 °C 1011.7 hPa NNW 9.7 km/h 20.9 km/h 81% 0 mm 67 W/m2
08:59 4.3 °C 1.3 °C 1011.7 hPa NNW 13.5 km/h 24.1 km/h 81% 0 mm 67 W/m2
09:04 4.2 °C 1.2 °C 1011.7 hPa NNW 8 km/h 14.5 km/h 81% 0 mm 63 W/m2
09:09 4.2 °C 1.4 °C 1012.1 hPa North 18.3 km/h 33.8 km/h 82% 0 mm 76 W/m2
09:14 4.1 °C 1.3 °C 1012.1 hPa North 15.4 km/h 33.8 km/h 82% 0 mm 77 W/m2
09:19 4.2 °C 1.4 °C 1012.1 hPa NNE 14.3 km/h 35.4 km/h 82% 0 mm 100 W/m2
09:24 4.2 °C 1.4 °C 1012.1 hPa North 20.3 km/h 35.4 km/h 82% 0 mm 102 W/m2
09:29 4.2 °C 1.4 °C 1012.4 hPa North 17.1 km/h 30.6 km/h 82% 0 mm 98 W/m2
09:34 4.3 °C 1.4 °C 1012.4 hPa North 11.6 km/h 30.6 km/h 82% 0 mm 116 W/m2
09:39 4.3 °C 1.5 °C 1012.4 hPa North 13.5 km/h 30.6 km/h 82% 0 mm 128 W/m2
09:44 4.3 °C 1.6 °C 1012.4 hPa North 13.8 km/h 32.2 km/h 82% 0 mm 142 W/m2
09:49 4.4 °C 1.7 °C 1012.8 hPa NNW 13.8 km/h 29 km/h 82% 0 mm 192 W/m2
09:54 4.6 °C 1.8 °C 1012.8 hPa NNE 13.7 km/h 29 km/h 82% 0 mm 193 W/m2
09:59 4.7 °C 1.9 °C 1012.8 hPa North 12.9 km/h 30.6 km/h 82% 0 mm 271 W/m2
10:04 4.8 °C 1.8 °C 1012.8 hPa NNE 10.6 km/h 30.6 km/h 81% 0 mm 135 W/m2
10:09 4.8 °C 1.8 °C 1012.8 hPa North 11.7 km/h 29 km/h 81% 0 mm 142 W/m2
10:14 4.8 °C 1.8 °C 1013.1 hPa NNW 12.9 km/h 29 km/h 81% 0 mm 183 W/m2
10:19 4.9 °C 1.9 °C 1013.1 hPa North 12.9 km/h 27.4 km/h 81% 0 mm 181 W/m2
10:24 4.9 °C 1.9 °C 1013.1 hPa North 16.7 km/h 29 km/h 81% 0 mm 179 W/m2
10:29 5 °C 1.8 °C 1013.1 hPa North 16.6 km/h 30.6 km/h 80% 0 mm 195 W/m2
10:34 5.1 °C 1.9 °C 1013.4 hPa North 15.1 km/h 27.4 km/h 80% 0 mm 237 W/m2
10:39 5.2 °C 2.1 °C 1013.4 hPa North 13 km/h 30.6 km/h 80% 0 mm 227 W/m2
10:44 5.3 °C 2.1 °C 1013.4 hPa North 15.8 km/h 27.4 km/h 80% 0 mm 218 W/m2
10:49 5.3 °C 2.1 °C 1013.4 hPa NNW 11.4 km/h 25.7 km/h 80% 0 mm 322 W/m2
10:54 5.4 °C 2.2 °C 1013.8 hPa North 18.3 km/h 29 km/h 80% 0 mm 322 W/m2
10:59 5.6 °C 2.3 °C 1013.8 hPa North 13.2 km/h 25.7 km/h 80% 0 mm 202 W/m2
11:04 5.6 °C 2.4 °C 1013.8 hPa NNW 20 km/h 38.6 km/h 80% 0 mm 257 W/m2
11:09 5.7 °C 2.3 °C 1014.1 hPa North 14.8 km/h 29 km/h 79% 0 mm 214 W/m2
11:14 5.8 °C 2.3 °C 1014.1 hPa NNE 10.9 km/h 27.4 km/h 79% 0 mm 236 W/m2
11:19 5.8 °C 2.4 °C 1014.1 hPa North 14.5 km/h 27.4 km/h 79% 0 mm 179 W/m2
11:24 5.7 °C 2.2 °C 1014.4 hPa NNW 14.2 km/h 25.7 km/h 78.2% 0 mm 211 W/m2
11:29 5.7 °C 2.2 °C 1014.4 hPa North 10 km/h 20.9 km/h 78% 0 mm 206 W/m2
11:34 5.7 °C 2.2 °C 1014.4 hPa North 15.4 km/h 30.6 km/h 78% 0 mm 213 W/m2
11:39 5.8 °C 2.3 °C 1014.4 hPa North 12.1 km/h 33.8 km/h 78% 0 mm 237 W/m2
11:44 5.9 °C 2.4 °C 1014.4 hPa NNW 9.5 km/h 24.1 km/h 78% 0 mm 207 W/m2
11:49 5.9 °C 2.4 °C 1014.4 hPa North 13.8 km/h 24.1 km/h 78% 0 mm 211 W/m2
11:54 6.1 °C 2.6 °C 1014.4 hPa North 11.1 km/h 25.7 km/h 78% 0 mm 199 W/m2
11:59 6.2 °C 2.6 °C 1014.4 hPa North 14.2 km/h 25.7 km/h 78% 0 mm 552 W/m2
12:04 6.3 °C 2.7 °C 1014.8 hPa NNW 12.1 km/h 25.7 km/h 77.6% 0 mm 552 W/m2
12:09 6.4 °C 2.7 °C 1014.8 hPa North 19.2 km/h 29 km/h 77% 0 mm 287 W/m2
12:14 6.5 °C 2.7 °C 1014.8 hPa North 19.8 km/h 40.2 km/h 76.8% 0 mm 246 W/m2
12:19 6.6 °C 2.7 °C 1014.8 hPa North 13.2 km/h 40.2 km/h 76% 0 mm 568 W/m2
12:24 6.7 °C 2.7 °C 1014.4 hPa North 19 km/h 32.2 km/h 75.6% 0 mm 276 W/m2
12:29 6.9 °C 3 °C 1014.8 hPa North 12.6 km/h 24.1 km/h 76% 0 mm 272 W/m2
12:34 6.8 °C 2.9 °C 1014.8 hPa NNW 13.5 km/h 27.4 km/h 76% 0 mm 251 W/m2
12:39 6.9 °C 3 °C 1015.1 hPa North 16.4 km/h 30.6 km/h 76% 0 mm 209 W/m2
12:44 7 °C 3.1 °C 1015.1 hPa NNW 14.5 km/h 33.8 km/h 75.8% 0 mm 663 W/m2
12:49 6.9 °C 2.8 °C 1015.1 hPa NNW 11.9 km/h 33.8 km/h 75% 0 mm 158 W/m2
12:54 6.8 °C 2.9 °C 1015.1 hPa North 18 km/h 24.1 km/h 76% 0 mm 158 W/m2
12:59 7 °C 2.9 °C 1015.1 hPa North 14.5 km/h 29 km/h 75.2% 0 mm 148 W/m2
13:04 7.1 °C 3 °C 1015.1 hPa NNW 13.2 km/h 25.7 km/h 75% 0 mm 294 W/m2
13:09 7.3 °C 3.2 °C 1015.1 hPa NNW 11.4 km/h 32.2 km/h 75% 0 mm 503 W/m2
13:14 7.4 °C 3.2 °C 1015.1 hPa NNW 14.8 km/h 33.8 km/h 74.8% 0 mm 599 W/m2
13:19 7.3 °C 3.1 °C 1015.5 hPa North 20.6 km/h 40.2 km/h 74% 0 mm 202 W/m2
13:24 7.2 °C 2.8 °C 1015.5 hPa North 16.7 km/h 38.6 km/h 73.6% 0 mm 174 W/m2
13:29 7.3 °C 2.9 °C 1015.5 hPa North 19.5 km/h 30.6 km/h 73.4% 0 mm 482 W/m2
13:34 7.9 °C 3.4 °C 1015.5 hPa North 14 km/h 30.6 km/h 73% 0 mm 547 W/m2
13:39 8.3 °C 3.6 °C 1015.5 hPa NNE 16.1 km/h 35.4 km/h 72.4% 0 mm 571 W/m2
13:44 8.5 °C 3.5 °C 1015.5 hPa North 14.5 km/h 33.8 km/h 71% 0 mm 533 W/m2
13:49 8.8 °C 3.7 °C 1015.5 hPa NNE 11.6 km/h 22.5 km/h 70.2% 0 mm 508 W/m2
13:54 8.8 °C 3.3 °C 1015.8 hPa North 16.7 km/h 24.1 km/h 68.4% 0 mm 452 W/m2
13:59 9.1 °C 3.2 °C 1015.8 hPa NNE 6.1 km/h 27.4 km/h 67% 0 mm 439 W/m2
14:04 9.5 °C 3.3 °C 1015.8 hPa NE 14.5 km/h 32.2 km/h 65.4% 0 mm 454 W/m2
14:09 9.7 °C 3.2 °C 1015.5 hPa North 15.4 km/h 37 km/h 64% 0 mm 540 W/m2
14:14 9.1 °C 2.8 °C 1015.8 hPa NNW 20 km/h 38.6 km/h 64.6% 0 mm 531 W/m2
14:19 8.2 °C 2.6 °C 1015.8 hPa North 14.8 km/h 33.8 km/h 67.8% 0 mm 123 W/m2
14:24 8.1 °C 2.8 °C 1015.8 hPa North 14.8 km/h 25.7 km/h 69.2% 0 mm 432 W/m2
14:29 8.3 °C 3.1 °C 1016.1 hPa North 17.1 km/h 33.8 km/h 69.4% 0 mm 432 W/m2
14:34 8.6 °C 3.2 °C 1016.1 hPa North 18 km/h 33.8 km/h 69% 0 mm 424 W/m2
14:39 8.4 °C 3.1 °C 1016.1 hPa North 17.1 km/h 32.2 km/h 69.2% 0 mm 387 W/m2
14:44 8.4 °C 2.8 °C 1016.1 hPa North 19.3 km/h 32.2 km/h 68.2% 0 mm 452 W/m2
14:49 8.5 °C 2.9 °C 1016.1 hPa NNW 19.6 km/h 40.2 km/h 68% 0 mm 287 W/m2
14:54 8.2 °C 2.8 °C 1016.1 hPa North 13.8 km/h 40.2 km/h 68.6% 0 mm 160 W/m2
14:59 8.1 °C 2.9 °C 1016.1 hPa North 14.8 km/h 27.4 km/h 69.6% 0 mm 144 W/m2
15:04 7.9 °C 2.8 °C 1016.5 hPa North 13.5 km/h 32.2 km/h 70% 0 mm 153 W/m2
15:09 7.9 °C 3.1 °C 1016.5 hPa NNW 13.5 km/h 27.4 km/h 71% 0 mm 383 W/m2
15:14 8.1 °C 3.3 °C 1016.8 hPa NNE 15.4 km/h 25.7 km/h 71.8% 0 mm 169 W/m2
15:19 7.9 °C 3.2 °C 1016.8 hPa North 18 km/h 33.8 km/h 72% 0 mm 114 W/m2
15:24 7.5 °C 2.9 °C 1016.8 hPa North 18 km/h 37 km/h 72.8% 0 mm 76 W/m2
15:29 7.3 °C 2.9 °C 1016.8 hPa NNE 15 km/h 32.2 km/h 73.4% 0 mm 69 W/m2
15:34 7.5 °C 3.2 °C 1016.8 hPa North 10.9 km/h 19.3 km/h 74% 0 mm 149 W/m2
15:39 7.6 °C 3.3 °C 1016.8 hPa NNE 9 km/h 19.3 km/h 74% 0 mm 111 W/m2
15:44 7.6 °C 3.3 °C 1017.2 hPa NNW 10.5 km/h 17.7 km/h 74.2% 0 mm 283 W/m2
15:49 7.4 °C 3.3 °C 1017.2 hPa North 16.1 km/h 29 km/h 75% 0 mm 149 W/m2
15:54 7.3 °C 3.2 °C 1017.2 hPa NNW 12.1 km/h 25.7 km/h 75% 0 mm 113 W/m2
15:59 7.2 °C 3.3 °C 1017.2 hPa NNW 9.7 km/h 25.7 km/h 76% 0 mm 139 W/m2
16:04 7.2 °C 3.3 °C 1017.5 hPa North 13.2 km/h 24.1 km/h 76% 0 mm 86 W/m2
16:09 7.2 °C 3.3 °C 1017.5 hPa North 13.8 km/h 25.7 km/h 76% 0 mm 65 W/m2
16:14 7.1 °C 3.2 °C 1017.5 hPa NNW 19.6 km/h 35.4 km/h 76% 0 mm 77 W/m2
16:19 6.7 °C 2.9 °C 1017.5 hPa NNW 16.6 km/h 30.6 km/h 76.4% 0 mm 79 W/m2
16:24 6.7 °C 3 °C 1017.8 hPa NNW 13.5 km/h 22.5 km/h 77% 0 mm 51 W/m2
16:29 6.7 °C 3 °C 1017.8 hPa North 6.4 km/h 14.5 km/h 77.2% 0 mm 46 W/m2
16:34 6.8 °C 3.2 °C 1017.8 hPa NNE 8 km/h 14.5 km/h 78% 0 mm 28 W/m2
16:39 6.8 °C 3.2 °C 1018.2 hPa North 8.7 km/h 19.3 km/h 78% 0 mm 30 W/m2
16:44 6.8 °C 3.1 °C 1017.8 hPa North 11.3 km/h 27.4 km/h 77% 0 mm 33 W/m2
16:49 6.7 °C 3 °C 1018.2 hPa North 11.3 km/h 22.5 km/h 77% 0 mm 26 W/m2
16:54 6.7 °C 2.9 °C 1018.2 hPa North 8.2 km/h 24.1 km/h 77% 0 mm 23 W/m2
16:59 6.6 °C 2.8 °C 1018.2 hPa NNW 8.4 km/h 17.7 km/h 77% 0 mm 21 W/m2
17:04 6.4 °C 2.8 °C 1018.2 hPa North 7.7 km/h 11.3 km/h 77.6% 0 mm 21 W/m2
17:09 6.3 °C 2.7 °C 1018.5 hPa NNW 11.6 km/h 17.7 km/h 78% 0 mm 19 W/m2
17:14 6.3 °C 2.7 °C 1018.5 hPa NNW 4.7 km/h 14.5 km/h 78% 0 mm 19 W/m2
17:19 6.3 °C 2.7 °C 1018.5 hPa NNW 7.1 km/h 14.5 km/h 78% 0 mm 18 W/m2
17:24 6.2 °C 2.6 °C 1018.8 hPa NNW 6.4 km/h 9.7 km/h 78% 0 mm 16 W/m2
17:29 6.2 °C 2.6 °C 1018.8 hPa NNW 7.7 km/h 14.5 km/h 78% 0 mm 14 W/m2
17:34 6.1 °C 2.6 °C 1018.8 hPa NW 6.9 km/h 14.5 km/h 78% 0 mm 11 W/m2
17:39 6.1 °C 2.7 °C 1018.8 hPa NW 5.6 km/h 11.3 km/h 78.8% 0 mm 9 W/m2
17:44 6 °C 2.6 °C 1018.8 hPa NNW 6.6 km/h 11.3 km/h 79% 0 mm 7 W/m2
17:49 6 °C 2.6 °C 1019.2 hPa NNW 6.6 km/h 12.9 km/h 79% 0 mm 0 W/m2
17:54 6 °C 2.6 °C 1019.2 hPa NNW 8.4 km/h 16.1 km/h 78.6% 0 mm 0 W/m2
17:59 6 °C 2.5 °C 1019.2 hPa NW 3.7 km/h 11.3 km/h 78% 0 mm 0 W/m2
18:04 5.9 °C 2.4 °C 1019.5 hPa NNW 6.4 km/h 11.3 km/h 78.2% 0 mm 0 W/m2
18:09 5.9 °C 2.4 °C 1019.5 hPa NNW 10.5 km/h 19.3 km/h 78% 0 mm 0 W/m2
18:14 5.9 °C 2.4 °C 1019.5 hPa North 10.6 km/h 19.3 km/h 78% 0 mm 0 W/m2
18:19 5.8 °C 2.4 °C 1019.5 hPa North 7.4 km/h 17.7 km/h 79% 0 mm 0 W/m2
18:24 5.8 °C 2.4 °C 1019.9 hPa NNW 8.5 km/h 14.5 km/h 79% 0 mm 0 W/m2
18:29 5.7 °C 2.3 °C 1019.9 hPa NNE 6 km/h 12.9 km/h 79% 0 mm 0 W/m2
18:34 5.7 °C 2.3 °C 1019.9 hPa North 7.6 km/h 16.1 km/h 79% 0 mm 0 W/m2
18:39 5.7 °C 2.3 °C 1020.2 hPa North 8.5 km/h 12.9 km/h 79% 0 mm 0 W/m2
18:44 5.8 °C 2.4 °C 1020.2 hPa North 7.1 km/h 12.9 km/h 79% 0 mm 0 W/m2
18:49 5.8 °C 2.4 °C 1020.2 hPa NNW 9 km/h 17.7 km/h 79% 0 mm 0 W/m2
18:54 5.9 °C 2.5 °C 1020.5 hPa North 9.8 km/h 19.3 km/h 79% 0 mm 0 W/m2
18:59 5.9 °C 2.5 °C 1020.5 hPa North 9.3 km/h 19.3 km/h 79% 0 mm 0 W/m2
19:04 5.9 °C 2.5 °C 1020.5 hPa North 9.7 km/h 17.7 km/h 79% 0 mm 0 W/m2
19:09 5.8 °C 2.4 °C 1020.5 hPa North 8 km/h 12.9 km/h 79% 0 mm 0 W/m2
19:14 5.8 °C 2.4 °C 1020.5 hPa NNW 8.4 km/h 16.1 km/h 79% 0 mm 0 W/m2
19:19 5.8 °C 2.4 °C 1020.5 hPa North 7.9 km/h 16.1 km/h 79% 0 mm 0 W/m2
19:24 5.7 °C 2.3 °C 1020.9 hPa NNW 7.1 km/h 16.1 km/h 79% 0 mm 0 W/m2
19:29 5.7 °C 2.3 °C 1020.9 hPa NNW 4.3 km/h 9.7 km/h 79% 0 mm 0 W/m2
19:34 5.6 °C 2.2 °C 1020.9 hPa NNW 4.5 km/h 12.9 km/h 79.2% 0 mm 0 W/m2
19:39 5.4 °C 2.2 °C 1020.9 hPa North 4.8 km/h 12.9 km/h 80% 0 mm 0 W/m2
19:44 5.4 °C 2.2 °C 1021.2 hPa NNW 5.8 km/h 11.3 km/h 80% 0 mm 0 W/m2
19:49 5.4 °C 2.2 °C 1021.2 hPa NNW 8.2 km/h 12.9 km/h 80% 0 mm 0 W/m2
19:54 5.4 °C 2.2 °C 1021.2 hPa North 7.7 km/h 17.7 km/h 80% 0 mm 0 W/m2
19:59 5.4 °C 2.2 °C 1021.2 hPa NNW 11.9 km/h 20.9 km/h 80% 0 mm 0 W/m2
20:04 5.4 °C 2.2 °C 1021.2 hPa NNW 7.6 km/h 14.5 km/h 80% 0 mm 0 W/m2
20:09 5.3 °C 2.2 °C 1021.2 hPa North 8.5 km/h 12.9 km/h 80% 0 mm 0 W/m2
20:14 5.3 °C 2.1 °C 1021.6 hPa NNW 7.2 km/h 16.1 km/h 80% 0 mm 0 W/m2
20:19 5.2 °C 2 °C 1021.6 hPa North 4.7 km/h 9.7 km/h 80% 0 mm 0 W/m2
20:24 5.1 °C 1.9 °C 1021.6 hPa NNW 4.7 km/h 12.9 km/h 80% 0 mm 0 W/m2
20:29 5.1 °C 1.9 °C 1021.6 hPa NNW 1 km/h 6.4 km/h 80% 0 mm 0 W/m2
20:34 5.1 °C 1.9 °C 1021.9 hPa NNW 3.1 km/h 4.8 km/h 80% 0 mm 0 W/m2
20:39 5.1 °C 1.8 °C 1021.9 hPa NNW 2.7 km/h 4.8 km/h 80% 0 mm 0 W/m2
20:44 4.9 °C 1.7 °C 1021.9 hPa NE 5.1 km/h 12.9 km/h 80% 0 mm 0 W/m2
20:49 4.9 °C 1.7 °C 1021.9 hPa North 2.1 km/h 6.4 km/h 80% 0 mm 0 W/m2
20:54 4.9 °C 1.7 °C 1021.9 hPa North 3.5 km/h 6.4 km/h 80% 0 mm 0 W/m2
20:59 4.9 °C 1.7 °C 1022.2 hPa North 5.3 km/h 14.5 km/h 80% 0 mm 0 W/m2
21:04 4.9 °C 1.7 °C 1021.9 hPa NNW 4.2 km/h 8 km/h 80% 0 mm 0 W/m2
21:09 4.8 °C 1.8 °C 1022.2 hPa NNW 2.6 km/h 8 km/h 80.8% 0 mm 0 W/m2
21:14 4.8 °C 1.8 °C 1022.2 hPa NNW 4 km/h 6.4 km/h 81% 0 mm 0 W/m2
21:19 4.7 °C 1.7 °C 1022.2 hPa NNW 2.7 km/h 6.4 km/h 81% 0 mm 0 W/m2
21:24 4.6 °C 1.4 °C 1022.2 hPa NNW 4 km/h 8 km/h 80.2% 0 mm 0 W/m2
21:29 4.5 °C 1.4 °C 1022.6 hPa NNW 5 km/h 9.7 km/h 80.8% 0 mm 0 W/m2
21:34 4.4 °C 1.4 °C 1022.6 hPa WNW 2.1 km/h 9.7 km/h 81% 0 mm 0 W/m2
21:39 4.4 °C 1.4 °C 1022.6 hPa WNW 3.2 km/h 6.4 km/h 81% 0 mm 0 W/m2
21:44 4.3 °C 1.3 °C 1022.6 hPa NW 2.7 km/h 9.7 km/h 81% 0 mm 0 W/m2
21:49 4.3 °C 1.3 °C 1022.6 hPa NW 1.6 km/h 4.8 km/h 81% 0 mm 0 W/m2
21:54 4.2 °C 1.2 °C 1022.6 hPa NW 0.8 km/h 4.8 km/h 81% 0 mm 0 W/m2
21:59 4.2 °C 1.2 °C 1022.6 hPa NW 2.3 km/h 6.4 km/h 81% 0 mm 0 W/m2
22:04 4.1 °C 1.1 °C 1022.6 hPa NW 2.3 km/h 8 km/h 81% 0 mm 0 W/m2
22:09 4 °C 1 °C 1022.6 hPa NW 4.7 km/h 8 km/h 81% 0 mm 0 W/m2
22:14 3.9 °C 1.1 °C 1022.9 hPa NNW 3.4 km/h 9.7 km/h 81.6% 0 mm 0 W/m2
22:19 3.9 °C 1.1 °C 1022.9 hPa NNW 4.5 km/h 9.7 km/h 82% 0 mm 0 W/m2
22:24 3.9 °C 1.1 °C 1022.9 hPa NNW 5.1 km/h 11.3 km/h 82% 0 mm 0 W/m2
22:29 3.8 °C 1.1 °C 1022.9 hPa North 5.6 km/h 9.7 km/h 82% 0 mm 0 W/m2
22:34 3.8 °C 1.1 °C 1022.9 hPa NNW 7.9 km/h 12.9 km/h 82.6% 0 mm 0 W/m2
22:39 3.8 °C 1.2 °C 1022.9 hPa NNW 5.3 km/h 12.9 km/h 83% 0 mm 0 W/m2
22:44 3.8 °C 1.2 °C 1022.9 hPa WNW 4.7 km/h 11.3 km/h 83% 0 mm 0 W/m2
22:49 3.8 °C 1.2 °C 1023.2 hPa NW 5.8 km/h 12.9 km/h 83% 0 mm 0 W/m2
22:54 3.8 °C 1.2 °C 1023.2 hPa NW 5.8 km/h 11.3 km/h 83% 0 mm 0 W/m2
22:59 3.8 °C 1.2 °C 1023.2 hPa NW 7.4 km/h 16.1 km/h 83% 0 mm 0 W/m2
23:04 3.8 °C 1.2 °C 1023.2 hPa NW 5.3 km/h 16.1 km/h 83.2% 0 mm 0 W/m2
23:09 3.7 °C 1.2 °C 1023.2 hPa NNW 5.8 km/h 11.3 km/h 84% 0 mm 0 W/m2
23:14 3.7 °C 1.2 °C 1023.2 hPa NNW 7.1 km/h 12.9 km/h 84% 0 mm 0 W/m2
23:19 3.7 °C 1.2 °C 1023.2 hPa NNW 5.3 km/h 12.9 km/h 84% 0 mm 0 W/m2
23:24 3.6 °C 1.2 °C 1023.2 hPa NNW 3.9 km/h 9.7 km/h 84% 0 mm 0 W/m2
23:29 3.6 °C 1.2 °C 1023.2 hPa NW 5.3 km/h 11.3 km/h 84% 0 mm 0 W/m2
23:34 3.4 °C 1.1 °C 1023.2 hPa NNW 3.9 km/h 11.3 km/h 84% 0 mm 0 W/m2
23:39 3.4 °C 1 °C 1023.2 hPa WNW 4.8 km/h 8 km/h 84% 0 mm 0 W/m2
23:44 3.3 °C 0.9 °C 1023.2 hPa WNW 4.5 km/h 9.7 km/h 84.4% 0 mm 0 W/m2
23:49 3 °C 0.7 °C 1023.2 hPa West 5.5 km/h 9.7 km/h 84.8% 0 mm 0 W/m2
23:54 2.4 °C 0.2 °C 1023.6 hPa West 6.3 km/h 9.7 km/h 84.8% 0 mm 0 W/m2
23:59 2.2 °C -0.2 °C 1023.6 hPa West 3.5 km/h 9.7 km/h 85% 0 mm 0 W/m2
Bath Spa Weather
Compliments of Weather Underground - 2 mb